sensor_id;sensor_type;location;lat;lon;timestamp;P1;durP1;ratioP1;P2;durP2;ratioP2
25915;SDS011;13719;48.188;11.618;2023-06-10T00:00:31;2.92;;;2.05;;
25915;SDS011;13719;48.188;11.618;2023-06-10T00:03:01;4.47;;;2.38;;
25915;SDS011;13719;48.188;11.618;2023-06-10T00:05:31;4.07;;;2.67;;
25915;SDS011;13719;48.188;11.618;2023-06-10T00:08:01;3.25;;;2.00;;
25915;SDS011;13719;48.188;11.618;2023-06-10T00:10:33;3.00;;;2.00;;
25915;SDS011;13719;48.188;11.618;2023-06-10T00:13:02;5.20;;;2.50;;
25915;SDS011;13719;48.188;11.618;2023-06-10T00:15:31;5.30;;;2.80;;
25915;SDS011;13719;48.188;11.618;2023-06-10T00:17:59;5.13;;;2.58;;
25915;SDS011;13719;48.188;11.618;2023-06-10T00:20:31;4.80;;;2.40;;
25915;SDS011;13719;48.188;11.618;2023-06-10T00:23:02;3.05;;;2.40;;
25915;SDS011;13719;48.188;11.618;2023-06-10T00:25:32;3.35;;;2.20;;
25915;SDS011;13719;48.188;11.618;2023-06-10T00:28:01;5.70;;;2.45;;
25915;SDS011;13719;48.188;11.618;2023-06-10T00:30:29;4.07;;;2.40;;
25915;SDS011;13719;48.188;11.618;2023-06-10T00:32:57;4.90;;;3.08;;
25915;SDS011;13719;48.188;11.618;2023-06-10T00:35:26;6.03;;;2.72;;
25915;SDS011;13719;48.188;11.618;2023-06-10T00:37:56;5.60;;;2.88;;
25915;SDS011;13719;48.188;11.618;2023-06-10T00:40:24;5.18;;;3.20;;
25915;SDS011;13719;48.188;11.618;2023-06-10T00:42:53;5.95;;;2.75;;
25915;SDS011;13719;48.188;11.618;2023-06-10T00:45:21;4.53;;;2.75;;
25915;SDS011;13719;48.188;11.618;2023-06-10T00:47:49;4.38;;;2.72;;
25915;SDS011;13719;48.188;11.618;2023-06-10T00:50:18;5.07;;;2.92;;
25915;SDS011;13719;48.188;11.618;2023-06-10T00:52:46;3.60;;;2.30;;
25915;SDS011;13719;48.188;11.618;2023-06-10T00:55:21;5.60;;;2.75;;
25915;SDS011;13719;48.188;11.618;2023-06-10T00:57:49;4.97;;;2.53;;
25915;SDS011;13719;48.188;11.618;2023-06-10T01:00:19;6.18;;;2.72;;
25915;SDS011;13719;48.188;11.618;2023-06-10T01:02:50;3.85;;;2.42;;
25915;SDS011;13719;48.188;11.618;2023-06-10T01:05:18;4.22;;;2.60;;
25915;SDS011;13719;48.188;11.618;2023-06-10T01:07:49;6.28;;;3.05;;
25915;SDS011;13719;48.188;11.618;2023-06-10T01:10:20;5.75;;;2.80;;
25915;SDS011;13719;48.188;11.618;2023-06-10T01:12:52;3.90;;;2.72;;
25915;SDS011;13719;48.188;11.618;2023-06-10T01:15:23;4.13;;;2.53;;
25915;SDS011;13719;48.188;11.618;2023-06-10T01:17:55;7.35;;;3.25;;
25915;SDS011;13719;48.188;11.618;2023-06-10T01:20:24;4.47;;;2.95;;
25915;SDS011;13719;48.188;11.618;2023-06-10T01:22:55;6.32;;;3.25;;
25915;SDS011;13719;48.188;11.618;2023-06-10T01:25:24;4.75;;;2.67;;
25915;SDS011;13719;48.188;11.618;2023-06-10T01:27:57;5.78;;;3.17;;
25915;SDS011;13719;48.188;11.618;2023-06-10T01:30:29;5.88;;;3.20;;
25915;SDS011;13719;48.188;11.618;2023-06-10T01:32:59;5.53;;;2.60;;
25915;SDS011;13719;48.188;11.618;2023-06-10T01:35:29;5.80;;;2.60;;
25915;SDS011;13719;48.188;11.618;2023-06-10T01:38:00;4.95;;;2.85;;
25915;SDS011;13719;48.188;11.618;2023-06-10T01:40:30;4.05;;;2.65;;
25915;SDS011;13719;48.188;11.618;2023-06-10T01:42:59;3.47;;;2.47;;
25915;SDS011;13719;48.188;11.618;2023-06-10T01:45:27;4.63;;;2.67;;
25915;SDS011;13719;48.188;11.618;2023-06-10T01:47:55;4.28;;;2.45;;
25915;SDS011;13719;48.188;11.618;2023-06-10T01:50:24;4.53;;;2.95;;
25915;SDS011;13719;48.188;11.618;2023-06-10T01:52:52;6.40;;;2.90;;
25915;SDS011;13719;48.188;11.618;2023-06-10T01:55:22;4.15;;;2.45;;
25915;SDS011;13719;48.188;11.618;2023-06-10T01:57:50;3.40;;;2.42;;
25915;SDS011;13719;48.188;11.618;2023-06-10T02:00:19;4.85;;;2.78;;
25915;SDS011;13719;48.188;11.618;2023-06-10T02:02:47;5.85;;;3.25;;
25915;SDS011;13719;48.188;11.618;2023-06-10T02:05:16;3.85;;;2.80;;
25915;SDS011;13719;48.188;11.618;2023-06-10T02:07:44;4.10;;;2.83;;
25915;SDS011;13719;48.188;11.618;2023-06-10T02:10:13;4.97;;;2.85;;
25915;SDS011;13719;48.188;11.618;2023-06-10T02:12:42;5.53;;;3.03;;
25915;SDS011;13719;48.188;11.618;2023-06-10T02:15:11;5.80;;;3.08;;
25915;SDS011;13719;48.188;11.618;2023-06-10T02:17:39;5.22;;;2.92;;
25915;SDS011;13719;48.188;11.618;2023-06-10T02:20:08;4.97;;;2.70;;
25915;SDS011;13719;48.188;11.618;2023-06-10T02:22:37;5.13;;;2.85;;
25915;SDS011;13719;48.188;11.618;2023-06-10T02:25:06;7.30;;;2.75;;
25915;SDS011;13719;48.188;11.618;2023-06-10T02:27:34;3.33;;;2.50;;
25915;SDS011;13719;48.188;11.618;2023-06-10T02:30:05;4.82;;;3.03;;
25915;SDS011;13719;48.188;11.618;2023-06-10T02:32:35;3.83;;;2.20;;
25915;SDS011;13719;48.188;11.618;2023-06-10T02:35:04;5.15;;;2.67;;
25915;SDS011;13719;48.188;11.618;2023-06-10T02:37:33;4.15;;;2.80;;
25915;SDS011;13719;48.188;11.618;2023-06-10T02:40:01;4.15;;;2.33;;
25915;SDS011;13719;48.188;11.618;2023-06-10T02:42:30;3.88;;;2.50;;
25915;SDS011;13719;48.188;11.618;2023-06-10T02:44:58;5.65;;;2.65;;
25915;SDS011;13719;48.188;11.618;2023-06-10T02:47:30;5.35;;;2.80;;
25915;SDS011;13719;48.188;11.618;2023-06-10T02:50:00;5.03;;;2.90;;
25915;SDS011;13719;48.188;11.618;2023-06-10T02:52:30;5.13;;;2.58;;
25915;SDS011;13719;48.188;11.618;2023-06-10T02:54:59;3.75;;;2.40;;
25915;SDS011;13719;48.188;11.618;2023-06-10T02:57:27;5.68;;;2.78;;
25915;SDS011;13719;48.188;11.618;2023-06-10T02:59:55;4.38;;;2.83;;
25915;SDS011;13719;48.188;11.618;2023-06-10T03:02:24;5.53;;;2.97;;
25915;SDS011;13719;48.188;11.618;2023-06-10T03:04:56;5.32;;;3.08;;
25915;SDS011;13719;48.188;11.618;2023-06-10T03:07:24;4.60;;;2.90;;
25915;SDS011;13719;48.188;11.618;2023-06-10T03:09:52;4.40;;;2.60;;
25915;SDS011;13719;48.188;11.618;2023-06-10T03:12:21;4.15;;;2.88;;
25915;SDS011;13719;48.188;11.618;2023-06-10T03:14:49;5.15;;;3.10;;
25915;SDS011;13719;48.188;11.618;2023-06-10T03:17:18;4.38;;;2.78;;
25915;SDS011;13719;48.188;11.618;2023-06-10T03:19:46;6.38;;;3.58;;
25915;SDS011;13719;48.188;11.618;2023-06-10T03:22:16;5.70;;;2.92;;
25915;SDS011;13719;48.188;11.618;2023-06-10T03:24:45;4.57;;;2.67;;
25915;SDS011;13719;48.188;11.618;2023-06-10T03:27:16;4.70;;;2.92;;
25915;SDS011;13719;48.188;11.618;2023-06-10T03:29:44;5.55;;;2.75;;
25915;SDS011;13719;48.188;11.618;2023-06-10T03:32:13;6.25;;;3.85;;
25915;SDS011;13719;48.188;11.618;2023-06-10T03:34:41;5.35;;;2.85;;
25915;SDS011;13719;48.188;11.618;2023-06-10T03:37:11;8.10;;;3.85;;
25915;SDS011;13719;48.188;11.618;2023-06-10T03:39:41;4.97;;;2.83;;
25915;SDS011;13719;48.188;11.618;2023-06-10T03:42:09;5.32;;;2.88;;
25915;SDS011;13719;48.188;11.618;2023-06-10T03:44:37;5.97;;;3.70;;
25915;SDS011;13719;48.188;11.618;2023-06-10T03:47:06;9.98;;;3.35;;
25915;SDS011;13719;48.188;11.618;2023-06-10T03:49:34;7.88;;;3.70;;
25915;SDS011;13719;48.188;11.618;2023-06-10T03:52:03;5.20;;;3.10;;
25915;SDS011;13719;48.188;11.618;2023-06-10T03:54:31;6.32;;;3.45;;
25915;SDS011;13719;48.188;11.618;2023-06-10T03:57:01;6.10;;;3.00;;
25915;SDS011;13719;48.188;11.618;2023-06-10T03:59:30;5.60;;;3.50;;
25915;SDS011;13719;48.188;11.618;2023-06-10T04:01:58;7.45;;;3.22;;
25915;SDS011;13719;48.188;11.618;2023-06-10T04:04:28;7.03;;;3.38;;
25915;SDS011;13719;48.188;11.618;2023-06-10T04:06:57;4.70;;;2.92;;
25915;SDS011;13719;48.188;11.618;2023-06-10T04:09:25;5.78;;;3.53;;
25915;SDS011;13719;48.188;11.618;2023-06-10T04:11:54;5.65;;;2.92;;
25915;SDS011;13719;48.188;11.618;2023-06-10T04:14:23;7.63;;;3.35;;
25915;SDS011;13719;48.188;11.618;2023-06-10T04:16:52;6.70;;;3.72;;
25915;SDS011;13719;48.188;11.618;2023-06-10T04:19:20;6.43;;;3.58;;
25915;SDS011;13719;48.188;11.618;2023-06-10T04:21:49;7.00;;;3.60;;
25915;SDS011;13719;48.188;11.618;2023-06-10T04:24:17;5.35;;;3.20;;
25915;SDS011;13719;48.188;11.618;2023-06-10T04:26:46;6.93;;;3.13;;
25915;SDS011;13719;48.188;11.618;2023-06-10T04:29:14;6.10;;;3.88;;
25915;SDS011;13719;48.188;11.618;2023-06-10T04:31:44;7.43;;;3.53;;
25915;SDS011;13719;48.188;11.618;2023-06-10T04:34:13;10.00;;;4.03;;
25915;SDS011;13719;48.188;11.618;2023-06-10T04:36:41;6.13;;;3.03;;
25915;SDS011;13719;48.188;11.618;2023-06-10T04:39:09;5.72;;;3.10;;
25915;SDS011;13719;48.188;11.618;2023-06-10T04:41:38;11.02;;;3.38;;
25915;SDS011;13719;48.188;11.618;2023-06-10T04:44:06;7.35;;;3.50;;
25915;SDS011;13719;48.188;11.618;2023-06-10T04:46:35;6.70;;;3.53;;
25915;SDS011;13719;48.188;11.618;2023-06-10T04:49:04;6.32;;;3.20;;
25915;SDS011;13719;48.188;11.618;2023-06-10T04:51:33;8.18;;;3.50;;
25915;SDS011;13719;48.188;11.618;2023-06-10T04:54:02;6.88;;;3.63;;
25915;SDS011;13719;48.188;11.618;2023-06-10T04:56:30;6.80;;;3.70;;
25915;SDS011;13719;48.188;11.618;2023-06-10T04:58:59;6.65;;;3.67;;
25915;SDS011;13719;48.188;11.618;2023-06-10T05:01:28;6.43;;;3.25;;
25915;SDS011;13719;48.188;11.618;2023-06-10T05:03:56;6.90;;;3.95;;
25915;SDS011;13719;48.188;11.618;2023-06-10T05:06:26;7.60;;;3.72;;
25915;SDS011;13719;48.188;11.618;2023-06-10T05:08:54;7.00;;;3.85;;
25915;SDS011;13719;48.188;11.618;2023-06-10T05:11:23;5.55;;;3.40;;
25915;SDS011;13719;48.188;11.618;2023-06-10T05:13:51;5.28;;;3.33;;
25915;SDS011;13719;48.188;11.618;2023-06-10T05:16:19;4.85;;;2.83;;
25915;SDS011;13719;48.188;11.618;2023-06-10T05:18:48;8.02;;;4.15;;
25915;SDS011;13719;48.188;11.618;2023-06-10T05:21:18;6.55;;;4.22;;
25915;SDS011;13719;48.188;11.618;2023-06-10T05:23:49;6.03;;;3.40;;
25915;SDS011;13719;48.188;11.618;2023-06-10T05:26:17;7.93;;;3.50;;
25915;SDS011;13719;48.188;11.618;2023-06-10T05:28:45;9.35;;;4.20;;
25915;SDS011;13719;48.188;11.618;2023-06-10T05:31:14;5.78;;;3.22;;
25915;SDS011;13719;48.188;11.618;2023-06-10T05:33:42;10.25;;;4.50;;
25915;SDS011;13719;48.188;11.618;2023-06-10T05:36:11;5.78;;;3.40;;
25915;SDS011;13719;48.188;11.618;2023-06-10T05:38:39;8.05;;;4.07;;
25915;SDS011;13719;48.188;11.618;2023-06-10T05:41:09;8.45;;;4.03;;
25915;SDS011;13719;48.188;11.618;2023-06-10T05:43:37;6.80;;;3.95;;
25915;SDS011;13719;48.188;11.618;2023-06-10T05:46:06;7.60;;;4.45;;
25915;SDS011;13719;48.188;11.618;2023-06-10T05:48:34;9.95;;;4.35;;
25915;SDS011;13719;48.188;11.618;2023-06-10T05:51:03;11.30;;;4.30;;
25915;SDS011;13719;48.188;11.618;2023-06-10T05:53:31;6.45;;;3.90;;
25915;SDS011;13719;48.188;11.618;2023-06-10T05:55:59;10.55;;;4.57;;
25915;SDS011;13719;48.188;11.618;2023-06-10T05:58:29;8.98;;;4.22;;
25915;SDS011;13719;48.188;11.618;2023-06-10T06:00:57;8.52;;;3.75;;
25915;SDS011;13719;48.188;11.618;2023-06-10T06:03:26;10.32;;;4.10;;
25915;SDS011;13719;48.188;11.618;2023-06-10T06:05:55;7.28;;;3.72;;
25915;SDS011;13719;48.188;11.618;2023-06-10T06:08:23;8.35;;;3.67;;
25915;SDS011;13719;48.188;11.618;2023-06-10T06:10:52;6.45;;;3.20;;
25915;SDS011;13719;48.188;11.618;2023-06-10T06:13:20;7.13;;;4.15;;
25915;SDS011;13719;48.188;11.618;2023-06-10T06:15:50;8.05;;;3.92;;
25915;SDS011;13719;48.188;11.618;2023-06-10T06:18:19;7.00;;;3.90;;
25915;SDS011;13719;48.188;11.618;2023-06-10T06:20:47;4.72;;;2.75;;
25915;SDS011;13719;48.188;11.618;2023-06-10T06:23:15;7.93;;;3.45;;
25915;SDS011;13719;48.188;11.618;2023-06-10T06:25:44;6.30;;;3.53;;
25915;SDS011;13719;48.188;11.618;2023-06-10T06:28:12;5.25;;;2.97;;
25915;SDS011;13719;48.188;11.618;2023-06-10T06:30:40;6.63;;;3.05;;
25915;SDS011;13719;48.188;11.618;2023-06-10T06:33:10;8.18;;;3.63;;
25915;SDS011;13719;48.188;11.618;2023-06-10T06:35:38;4.72;;;2.67;;
25915;SDS011;13719;48.188;11.618;2023-06-10T06:38:07;7.57;;;3.55;;
25915;SDS011;13719;48.188;11.618;2023-06-10T06:40:35;7.18;;;4.15;;
25915;SDS011;13719;48.188;11.618;2023-06-10T06:43:04;6.57;;;3.78;;
25915;SDS011;13719;48.188;11.618;2023-06-10T06:45:32;5.43;;;3.30;;
25915;SDS011;13719;48.188;11.618;2023-06-10T06:48:01;6.80;;;3.22;;
25915;SDS011;13719;48.188;11.618;2023-06-10T06:50:31;6.28;;;3.40;;
25915;SDS011;13719;48.188;11.618;2023-06-10T06:52:59;6.78;;;2.50;;
25915;SDS011;13719;48.188;11.618;2023-06-10T06:55:27;4.40;;;2.55;;
25915;SDS011;13719;48.188;11.618;2023-06-10T06:57:56;8.52;;;3.55;;
25915;SDS011;13719;48.188;11.618;2023-06-10T07:00:24;6.30;;;3.67;;
25915;SDS011;13719;48.188;11.618;2023-06-10T07:02:53;7.50;;;3.40;;
25915;SDS011;13719;48.188;11.618;2023-06-10T07:05:21;6.22;;;2.83;;
25915;SDS011;13719;48.188;11.618;2023-06-10T07:07:53;6.85;;;3.15;;
25915;SDS011;13719;48.188;11.618;2023-06-10T07:10:22;9.35;;;3.70;;
25915;SDS011;13719;48.188;11.618;2023-06-10T07:12:51;5.70;;;3.13;;
25915;SDS011;13719;48.188;11.618;2023-06-10T07:15:19;7.28;;;2.88;;
25915;SDS011;13719;48.188;11.618;2023-06-10T07:17:47;6.95;;;3.72;;
25915;SDS011;13719;48.188;11.618;2023-06-10T07:20:16;5.60;;;3.00;;
25915;SDS011;13719;48.188;11.618;2023-06-10T07:22:45;7.13;;;3.00;;
25915;SDS011;13719;48.188;11.618;2023-06-10T07:25:15;6.85;;;3.60;;
25915;SDS011;13719;48.188;11.618;2023-06-10T07:27:43;10.07;;;3.60;;
25915;SDS011;13719;48.188;11.618;2023-06-10T07:30:12;7.43;;;3.30;;
25915;SDS011;13719;48.188;11.618;2023-06-10T07:32:40;5.50;;;3.25;;
25915;SDS011;13719;48.188;11.618;2023-06-10T07:35:10;5.20;;;3.53;;
25915;SDS011;13719;48.188;11.618;2023-06-10T07:37:38;8.07;;;3.75;;
25915;SDS011;13719;48.188;11.618;2023-06-10T07:40:07;5.47;;;3.08;;
25915;SDS011;13719;48.188;11.618;2023-06-10T07:42:37;8.07;;;3.90;;
25915;SDS011;13719;48.188;11.618;2023-06-10T07:45:06;5.40;;;3.17;;
25915;SDS011;13719;48.188;11.618;2023-06-10T07:47:35;5.28;;;3.33;;
25915;SDS011;13719;48.188;11.618;2023-06-10T07:50:03;6.93;;;3.60;;
25915;SDS011;13719;48.188;11.618;2023-06-10T07:52:32;5.78;;;3.90;;
25915;SDS011;13719;48.188;11.618;2023-06-10T07:55:00;6.55;;;4.05;;
25915;SDS011;13719;48.188;11.618;2023-06-10T07:57:28;6.90;;;3.30;;
25915;SDS011;13719;48.188;11.618;2023-06-10T07:59:59;6.75;;;3.80;;
25915;SDS011;13719;48.188;11.618;2023-06-10T08:02:29;5.78;;;3.53;;
25915;SDS011;13719;48.188;11.618;2023-06-10T08:04:58;8.95;;;3.78;;
25915;SDS011;13719;48.188;11.618;2023-06-10T08:07:27;4.97;;;2.90;;
25915;SDS011;13719;48.188;11.618;2023-06-10T08:09:55;7.45;;;3.40;;
25915;SDS011;13719;48.188;11.618;2023-06-10T08:12:24;5.75;;;3.28;;
25915;SDS011;13719;48.188;11.618;2023-06-10T08:14:52;5.03;;;2.97;;
25915;SDS011;13719;48.188;11.618;2023-06-10T08:17:22;5.63;;;3.38;;
25915;SDS011;13719;48.188;11.618;2023-06-10T08:19:51;5.75;;;3.33;;
25915;SDS011;13719;48.188;11.618;2023-06-10T08:22:19;5.22;;;2.83;;
25915;SDS011;13719;48.188;11.618;2023-06-10T08:24:47;5.53;;;2.97;;
25915;SDS011;13719;48.188;11.618;2023-06-10T08:27:16;5.65;;;3.15;;
25915;SDS011;13719;48.188;11.618;2023-06-10T08:29:44;5.70;;;3.20;;
25915;SDS011;13719;48.188;11.618;2023-06-10T08:32:12;4.10;;;2.65;;
25915;SDS011;13719;48.188;11.618;2023-06-10T08:34:42;5.13;;;2.85;;
25915;SDS011;13719;48.188;11.618;2023-06-10T08:37:11;5.28;;;2.63;;
25915;SDS011;13719;48.188;11.618;2023-06-10T08:39:39;3.88;;;2.58;;
25915;SDS011;13719;48.188;11.618;2023-06-10T08:42:10;4.55;;;2.78;;
25915;SDS011;13719;48.188;11.618;2023-06-10T08:44:39;3.65;;;2.35;;
25915;SDS011;13719;48.188;11.618;2023-06-10T08:47:10;2.38;;;1.90;;
25915;SDS011;13719;48.188;11.618;2023-06-10T08:49:42;5.95;;;2.55;;
25915;SDS011;13719;48.188;11.618;2023-06-10T08:52:14;5.28;;;2.67;;
25915;SDS011;13719;48.188;11.618;2023-06-10T08:54:43;3.92;;;2.50;;
25915;SDS011;13719;48.188;11.618;2023-06-10T08:57:11;3.65;;;2.30;;
25915;SDS011;13719;48.188;11.618;2023-06-10T08:59:40;4.65;;;3.13;;
25915;SDS011;13719;48.188;11.618;2023-06-10T09:02:09;3.45;;;2.47;;
25915;SDS011;13719;48.188;11.618;2023-06-10T09:04:37;4.80;;;2.65;;
25915;SDS011;13719;48.188;11.618;2023-06-10T09:07:07;3.58;;;2.75;;
25915;SDS011;13719;48.188;11.618;2023-06-10T09:09:36;5.22;;;2.53;;
25915;SDS011;13719;48.188;11.618;2023-06-10T09:12:04;4.05;;;2.40;;
25915;SDS011;13719;48.188;11.618;2023-06-10T09:14:33;3.45;;;2.58;;
25915;SDS011;13719;48.188;11.618;2023-06-10T09:17:01;4.57;;;2.50;;
25915;SDS011;13719;48.188;11.618;2023-06-10T09:19:30;4.72;;;2.80;;
25915;SDS011;13719;48.188;11.618;2023-06-10T09:21:58;4.35;;;2.38;;
25915;SDS011;13719;48.188;11.618;2023-06-10T09:24:28;4.43;;;2.58;;
25915;SDS011;13719;48.188;11.618;2023-06-10T09:27:02;3.10;;;2.08;;
25915;SDS011;13719;48.188;11.618;2023-06-10T09:29:31;4.68;;;2.50;;
25915;SDS011;13719;48.188;11.618;2023-06-10T09:32:01;6.18;;;2.65;;
25915;SDS011;13719;48.188;11.618;2023-06-10T09:34:29;4.47;;;2.47;;
25915;SDS011;13719;48.188;11.618;2023-06-10T09:36:57;5.13;;;2.50;;
25915;SDS011;13719;48.188;11.618;2023-06-10T09:39:26;3.63;;;2.20;;
25915;SDS011;13719;48.188;11.618;2023-06-10T09:41:56;3.15;;;2.10;;
25915;SDS011;13719;48.188;11.618;2023-06-10T09:44:24;3.85;;;2.40;;
25915;SDS011;13719;48.188;11.618;2023-06-10T09:46:53;5.00;;;2.33;;
25915;SDS011;13719;48.188;11.618;2023-06-10T09:49:22;3.95;;;2.45;;
25915;SDS011;13719;48.188;11.618;2023-06-10T09:51:51;5.32;;;1.95;;
25915;SDS011;13719;48.188;11.618;2023-06-10T09:54:19;3.83;;;2.10;;
25915;SDS011;13719;48.188;11.618;2023-06-10T09:56:48;5.30;;;2.45;;
25915;SDS011;13719;48.188;11.618;2023-06-10T09:59:19;2.90;;;1.98;;
25915;SDS011;13719;48.188;11.618;2023-06-10T10:01:56;3.88;;;2.08;;
25915;SDS011;13719;48.188;11.618;2023-06-10T10:04:24;2.30;;;1.88;;
25915;SDS011;13719;48.188;11.618;2023-06-10T10:06:53;4.20;;;2.63;;
25915;SDS011;13719;48.188;11.618;2023-06-10T10:09:21;3.08;;;2.20;;
25915;SDS011;13719;48.188;11.618;2023-06-10T10:11:49;6.00;;;2.78;;
25915;SDS011;13719;48.188;11.618;2023-06-10T10:14:21;4.72;;;2.30;;
25915;SDS011;13719;48.188;11.618;2023-06-10T10:16:50;4.78;;;1.90;;
25915;SDS011;13719;48.188;11.618;2023-06-10T10:19:20;3.42;;;2.20;;
25915;SDS011;13719;48.188;11.618;2023-06-10T10:21:52;4.07;;;1.83;;
25915;SDS011;13719;48.188;11.618;2023-06-10T10:24:21;4.18;;;2.33;;
25915;SDS011;13719;48.188;11.618;2023-06-10T10:26:51;2.60;;;2.15;;
25915;SDS011;13719;48.188;11.618;2023-06-10T10:29:23;3.25;;;2.33;;
25915;SDS011;13719;48.188;11.618;2023-06-10T10:31:52;4.85;;;2.50;;
25915;SDS011;13719;48.188;11.618;2023-06-10T10:34:24;3.53;;;2.00;;
25915;SDS011;13719;48.188;11.618;2023-06-10T10:36:55;3.25;;;2.08;;
25915;SDS011;13719;48.188;11.618;2023-06-10T10:39:23;2.53;;;1.85;;
25915;SDS011;13719;48.188;11.618;2023-06-10T10:41:54;2.75;;;1.90;;
25915;SDS011;13719;48.188;11.618;2023-06-10T10:44:24;4.40;;;2.00;;
25915;SDS011;13719;48.188;11.618;2023-06-10T10:46:53;4.32;;;3.00;;
25915;SDS011;13719;48.188;11.618;2023-06-10T10:49:22;3.05;;;2.10;;
25915;SDS011;13719;48.188;11.618;2023-06-10T10:51:56;2.88;;;2.00;;
25915;SDS011;13719;48.188;11.618;2023-06-10T10:54:28;2.95;;;1.88;;
25915;SDS011;13719;48.188;11.618;2023-06-10T10:57:09;2.28;;;1.77;;
25915;SDS011;13719;48.188;11.618;2023-06-10T11:02:36;3.70;;;1.70;;
25915;SDS011;13719;48.188;11.618;2023-06-10T11:05:06;2.20;;;1.60;;
25915;SDS011;13719;48.188;11.618;2023-06-10T11:07:36;3.28;;;2.30;;
25915;SDS011;13719;48.188;11.618;2023-06-10T11:10:06;2.90;;;1.95;;
25915;SDS011;13719;48.188;11.618;2023-06-10T11:15:24;2.55;;;1.70;;
25915;SDS011;13719;48.188;11.618;2023-06-10T11:18:10;2.83;;;1.73;;
25915;SDS011;13719;48.188;11.618;2023-06-10T11:20:43;1.75;;;1.42;;
25915;SDS011;13719;48.188;11.618;2023-06-10T11:23:24;1.88;;;1.50;;
25915;SDS011;13719;48.188;11.618;2023-06-10T11:28:36;3.38;;;1.73;;
25915;SDS011;13719;48.188;11.618;2023-06-10T11:31:04;2.33;;;1.83;;
25915;SDS011;13719;48.188;11.618;2023-06-10T11:33:34;2.67;;;1.77;;
25915;SDS011;13719;48.188;11.618;2023-06-10T11:36:06;1.83;;;1.40;;
25915;SDS011;13719;48.188;11.618;2023-06-10T11:38:35;2.38;;;1.50;;
25915;SDS011;13719;48.188;11.618;2023-06-10T11:41:04;1.88;;;1.30;;
25915;SDS011;13719;48.188;11.618;2023-06-10T11:43:32;1.50;;;1.02;;
25915;SDS011;13719;48.188;11.618;2023-06-10T11:46:01;2.53;;;1.60;;
25915;SDS011;13719;48.188;11.618;2023-06-10T11:48:29;2.22;;;1.30;;
25915;SDS011;13719;48.188;11.618;2023-06-10T11:51:04;3.45;;;1.55;;
25915;SDS011;13719;48.188;11.618;2023-06-10T11:53:33;3.55;;;1.38;;
25915;SDS011;13719;48.188;11.618;2023-06-10T11:56:01;1.83;;;1.42;;
25915;SDS011;13719;48.188;11.618;2023-06-10T11:58:30;2.05;;;1.50;;
25915;SDS011;13719;48.188;11.618;2023-06-10T12:00:58;1.77;;;1.25;;
25915;SDS011;13719;48.188;11.618;2023-06-10T12:03:31;1.77;;;1.20;;
25915;SDS011;13719;48.188;11.618;2023-06-10T12:06:06;2.33;;;1.30;;
25915;SDS011;13719;48.188;11.618;2023-06-10T12:08:34;2.20;;;1.40;;
25915;SDS011;13719;48.188;11.618;2023-06-10T12:11:09;2.17;;;1.58;;
25915;SDS011;13719;48.188;11.618;2023-06-10T12:13:38;2.30;;;1.63;;
25915;SDS011;13719;48.188;11.618;2023-06-10T12:16:14;2.53;;;1.50;;
25915;SDS011;13719;48.188;11.618;2023-06-10T12:18:43;3.35;;;1.52;;
25915;SDS011;13719;48.188;11.618;2023-06-10T12:21:17;1.98;;;1.30;;
25915;SDS011;13719;48.188;11.618;2023-06-10T12:24:05;3.13;;;1.45;;
25915;SDS011;13719;48.188;11.618;2023-06-10T12:26:34;1.77;;;1.25;;
25915;SDS011;13719;48.188;11.618;2023-06-10T12:29:12;2.17;;;1.08;;
25915;SDS011;13719;48.188;11.618;2023-06-10T12:31:53;2.63;;;1.85;;
25915;SDS011;13719;48.188;11.618;2023-06-10T12:34:27;2.10;;;1.45;;
25915;SDS011;13719;48.188;11.618;2023-06-10T12:36:57;2.25;;;1.60;;
25915;SDS011;13719;48.188;11.618;2023-06-10T12:39:25;2.38;;;1.60;;
25915;SDS011;13719;48.188;11.618;2023-06-10T12:41:53;2.22;;;1.40;;
25915;SDS011;13719;48.188;11.618;2023-06-10T12:44:29;3.20;;;1.45;;
25915;SDS011;13719;48.188;11.618;2023-06-10T12:46:57;2.55;;;1.65;;
25915;SDS011;13719;48.188;11.618;2023-06-10T12:49:26;2.75;;;2.25;;
25915;SDS011;13719;48.188;11.618;2023-06-10T12:51:54;3.30;;;2.00;;
25915;SDS011;13719;48.188;11.618;2023-06-10T12:54:24;3.30;;;1.88;;
25915;SDS011;13719;48.188;11.618;2023-06-10T12:56:52;2.67;;;1.75;;
25915;SDS011;13719;48.188;11.618;2023-06-10T12:59:21;2.88;;;1.98;;
25915;SDS011;13719;48.188;11.618;2023-06-10T13:01:50;3.08;;;2.03;;
25915;SDS011;13719;48.188;11.618;2023-06-10T13:04:19;3.00;;;1.98;;
25915;SDS011;13719;48.188;11.618;2023-06-10T13:06:48;4.65;;;2.33;;
25915;SDS011;13719;48.188;11.618;2023-06-10T13:09:16;3.20;;;2.00;;
25915;SDS011;13719;48.188;11.618;2023-06-10T13:11:46;3.97;;;2.03;;
25915;SDS011;13719;48.188;11.618;2023-06-10T13:14:14;2.38;;;1.65;;
25915;SDS011;13719;48.188;11.618;2023-06-10T13:16:43;2.42;;;1.92;;
25915;SDS011;13719;48.188;11.618;2023-06-10T13:19:12;2.38;;;2.03;;
25915;SDS011;13719;48.188;11.618;2023-06-10T13:21:41;2.65;;;2.10;;
25915;SDS011;13719;48.188;11.618;2023-06-10T13:24:09;3.17;;;1.83;;
25915;SDS011;13719;48.188;11.618;2023-06-10T13:26:37;3.42;;;1.70;;
25915;SDS011;13719;48.188;11.618;2023-06-10T13:29:07;2.35;;;1.90;;
25915;SDS011;13719;48.188;11.618;2023-06-10T13:31:40;3.23;;;2.00;;
25915;SDS011;13719;48.188;11.618;2023-06-10T13:34:08;2.63;;;1.80;;
25915;SDS011;13719;48.188;11.618;2023-06-10T13:36:37;3.00;;;1.95;;
25915;SDS011;13719;48.188;11.618;2023-06-10T13:39:05;2.72;;;1.52;;
25915;SDS011;13719;48.188;11.618;2023-06-10T13:41:34;2.22;;;1.58;;
25915;SDS011;13719;48.188;11.618;2023-06-10T13:44:02;2.22;;;1.77;;
25915;SDS011;13719;48.188;11.618;2023-06-10T13:46:32;2.80;;;1.85;;
25915;SDS011;13719;48.188;11.618;2023-06-10T13:49:01;2.90;;;1.92;;
25915;SDS011;13719;48.188;11.618;2023-06-10T13:51:29;3.05;;;2.08;;
25915;SDS011;13719;48.188;11.618;2023-06-10T13:53:58;3.50;;;1.90;;
25915;SDS011;13719;48.188;11.618;2023-06-10T13:56:26;2.75;;;1.80;;
25915;SDS011;13719;48.188;11.618;2023-06-10T13:58:54;3.95;;;1.98;;
25915;SDS011;13719;48.188;11.618;2023-06-10T14:01:23;3.10;;;1.90;;
25915;SDS011;13719;48.188;11.618;2023-06-10T14:03:53;3.28;;;1.90;;
25915;SDS011;13719;48.188;11.618;2023-06-10T14:06:21;3.17;;;1.98;;
25915;SDS011;13719;48.188;11.618;2023-06-10T14:08:49;3.17;;;2.13;;
25915;SDS011;13719;48.188;11.618;2023-06-10T14:11:18;2.38;;;1.75;;
25915;SDS011;13719;48.188;11.618;2023-06-10T14:13:47;2.30;;;1.83;;
25915;SDS011;13719;48.188;11.618;2023-06-10T14:16:15;3.72;;;2.17;;
25915;SDS011;13719;48.188;11.618;2023-06-10T14:18:43;2.65;;;2.20;;
25915;SDS011;13719;48.188;11.618;2023-06-10T14:21:13;4.88;;;2.25;;
25915;SDS011;13719;48.188;11.618;2023-06-10T14:23:41;1.80;;;1.48;;
25915;SDS011;13719;48.188;11.618;2023-06-10T14:26:10;2.47;;;1.70;;
25915;SDS011;13719;48.188;11.618;2023-06-10T14:28:38;2.13;;;1.65;;
25915;SDS011;13719;48.188;11.618;2023-06-10T14:31:07;2.40;;;1.30;;
25915;SDS011;13719;48.188;11.618;2023-06-10T14:33:35;2.45;;;1.60;;
25915;SDS011;13719;48.188;11.618;2023-06-10T14:36:04;3.30;;;1.60;;
25915;SDS011;13719;48.188;11.618;2023-06-10T14:38:34;1.85;;;1.42;;
25915;SDS011;13719;48.188;11.618;2023-06-10T14:41:02;2.38;;;1.80;;
25915;SDS011;13719;48.188;11.618;2023-06-10T14:43:31;2.35;;;1.70;;
25915;SDS011;13719;48.188;11.618;2023-06-10T14:45:59;3.35;;;1.65;;
25915;SDS011;13719;48.188;11.618;2023-06-10T14:48:27;2.85;;;1.77;;
25915;SDS011;13719;48.188;11.618;2023-06-10T14:50:56;3.05;;;1.70;;
25915;SDS011;13719;48.188;11.618;2023-06-10T14:53:24;3.08;;;1.90;;